Time;durP1;ratioP1;P1;durP2;ratioP2;P2;SDS_P1;SDS_P2;PMS_P1;PMS_P2;Temp;Humidity;BMP_temperature;BMP_pressure;BME280_temperature;BME280_humidity;BME280_pressure;Samples;Min_cycle;Max_cycle;Signal;HPM_P1;HPM_P2
2023/08/27 00:00:25;;;;;;;6.00;3.17;;;26.10;87.00;;;;;;4950843;28;20061;-80
2023/08/27 00:02:52;;;;;;;9.68;3.30;;;26.10;87.30;;;;;;4963331;28;20043;-80
2023/08/27 00:05:20;;;;;;;6.90;4.20;;;26.00;87.40;;;;;;4963360;28;20075;-79
2023/08/27 00:07:47;;;;;;;8.32;4.00;;;26.00;88.20;;;;;;4974896;28;20051;-80
2023/08/27 00:10:15;;;;;;;8.43;3.13;;;26.00;88.30;;;;;;4961324;28;20093;-80
2023/08/27 00:12:42;;;;;;;10.68;3.65;;;26.00;88.70;;;;;;4958703;28;20086;-80
2023/08/27 00:15:09;;;;;;;8.50;3.58;;;25.90;88.70;;;;;;4945520;28;20071;-80
2023/08/27 00:17:36;;;;;;;7.20;3.42;;;25.90;89.50;;;;;;4958849;28;21045;-80
2023/08/27 00:20:09;;;;;;;8.25;3.72;;;25.90;88.90;;;;;;4957237;28;20066;-80
2023/08/27 00:22:37;;;;;;;8.90;3.80;;;25.80;88.90;;;;;;4972557;28;20049;-80
2023/08/27 00:25:05;;;;;;;4.75;3.42;;;25.80;88.60;;;;;;4955090;28;20510;-81
2023/08/27 00:27:33;;;;;;;6.60;3.30;;;25.80;89.00;;;;;;4956452;28;20059;-81
2023/08/27 00:30:04;;;;;;;7.72;3.60;;;25.70;89.40;;;;;;4949225;28;22833;-81
2023/08/27 00:32:33;;;;;;;8.57;3.53;;;25.70;90.00;;;;;;4971442;28;20090;-81
2023/08/27 00:35:03;;;;;;;7.95;3.80;;;25.70;90.20;;;;;;4955165;28;20047;-81
2023/08/27 00:37:31;;;;;;;8.70;3.63;;;25.60;90.10;;;;;;4947038;28;20057;-80
2023/08/27 00:39:58;;;;;;;7.22;3.00;;;25.60;90.40;;;;;;4957387;28;20090;-80
2023/08/27 00:42:26;;;;;;;6.82;3.58;;;25.60;90.50;;;;;;4961591;28;20070;-81
2023/08/27 00:44:53;;;;;;;7.10;3.22;;;25.50;90.50;;;;;;4947193;28;20141;-81
2023/08/27 00:47:20;;;;;;;11.30;3.30;;;25.50;90.60;;;;;;4970361;28;20055;-81
2023/08/27 00:49:48;;;;;;;7.68;3.47;;;25.50;91.20;;;;;;4956567;28;20047;-81
2023/08/27 00:52:17;;;;;;;5.95;3.33;;;25.50;91.50;;;;;;4960396;28;20402;-81
2023/08/27 00:54:45;;;;;;;7.18;3.47;;;25.40;91.70;;;;;;4951390;28;20138;-80
2023/08/27 00:57:14;;;;;;;6.82;4.45;;;25.40;91.90;;;;;;4952884;28;20079;-80
2023/08/27 00:59:42;;;;;;;6.07;3.92;;;25.40;92.70;;;;;;4959535;28;20043;-80
2023/08/27 01:02:09;;;;;;;7.93;3.90;;;25.30;92.70;;;;;;4962632;28;20042;-80
2023/08/27 01:04:37;;;;;;;10.40;4.22;;;25.30;92.10;;;;;;4973163;28;20043;-80
2023/08/27 01:07:13;;;;;;;5.13;3.42;;;25.30;92.70;;;;;;4946395;28;20054;-80
2023/08/27 01:09:47;;;;;;;7.63;3.88;;;25.20;93.00;;;;;;4957786;28;20047;-80
2023/08/27 01:12:20;;;;;;;8.32;4.75;;;25.20;92.70;;;;;;4955988;28;20046;-81
2023/08/27 01:14:49;;;;;;;10.68;3.95;;;25.00;92.50;;;;;;4939788;28;20518;-81
2023/08/27 01:17:22;;;;;;;6.00;3.67;;;25.00;92.90;;;;;;4970247;28;20051;-80
2023/08/27 01:19:49;;;;;;;8.50;3.90;;;25.10;93.50;;;;;;4971363;28;20133;-80
2023/08/27 01:22:17;;;;;;;6.75;4.10;;;25.00;93.70;;;;;;4965406;28;20439;-80
2023/08/27 01:24:44;;;;;;;9.18;4.95;;;25.10;94.60;;;;;;4957088;28;20066;-80
2023/08/27 01:27:21;;;;;;;6.82;4.68;;;25.00;94.30;;;;;;4977627;28;20051;-80
2023/08/27 01:30:14;;;;;;;8.90;4.50;;;25.00;95.00;;;;;;4943730;28;20050;-80
2023/08/27 01:32:49;;;;;;;7.07;4.00;;;24.90;95.00;;;;;;4964511;28;20081;-80
2023/08/27 01:35:16;;;;;;;9.85;4.30;;;25.00;94.90;;;;;;4965550;28;20058;-80
2023/08/27 01:37:44;;;;;;;7.97;5.13;;;24.90;94.40;;;;;;4962238;28;20042;-80
2023/08/27 01:40:11;;;;;;;13.20;4.55;;;24.90;95.10;;;;;;4963480;28;20062;-80
2023/08/27 01:42:39;;;;;;;6.68;4.20;;;24.90;94.90;;;;;;4955069;28;20039;-80
2023/08/27 01:45:09;;;;;;;8.52;4.20;;;24.90;95.20;;;;;;4945077;28;20050;-80
2023/08/27 01:47:36;;;;;;;10.93;4.95;;;24.80;94.70;;;;;;4963084;28;20051;-81
2023/08/27 01:50:05;;;;;;;9.90;4.32;;;24.50;94.80;;;;;;4955608;28;20074;-80
2023/08/27 01:52:35;;;;;;;7.22;3.97;;;24.60;95.50;;;;;;4973862;28;20055;-80
2023/08/27 01:55:04;;;;;;;8.18;4.65;;;24.70;95.90;;;;;;4947514;28;20051;-80
2023/08/27 01:57:32;;;;;;;8.30;4.43;;;24.60;95.60;;;;;;4954073;28;20507;-80
2023/08/27 01:59:59;;;;;;;8.77;4.50;;;24.60;95.90;;;;;;4958707;28;20049;-80
2023/08/27 02:02:27;;;;;;;5.97;4.05;;;24.60;96.20;;;;;;4960259;28;20044;-80
2023/08/27 02:04:55;;;;;;;7.13;4.20;;;24.60;96.70;;;;;;4960726;28;20039;-80
2023/08/27 02:07:23;;;;;;;7.88;4.18;;;24.70;96.60;;;;;;4948516;28;20047;-80
2023/08/27 02:09:51;;;;;;;6.65;4.38;;;24.70;97.10;;;;;;4958257;28;20082;-80
2023/08/27 02:12:18;;;;;;;7.90;4.32;;;24.60;97.30;;;;;;4957085;28;20079;-80
2023/08/27 02:14:45;;;;;;;9.40;3.78;;;24.60;97.20;;;;;;4960927;28;20514;-80
2023/08/27 02:17:13;;;;;;;9.07;4.60;;;24.60;96.40;;;;;;4946164;28;20065;-79
2023/08/27 02:19:40;;;;;;;7.40;5.18;;;24.60;96.60;;;;;;4945858;28;20090;-79
2023/08/27 02:22:08;;;;;;;10.00;5.53;;;24.60;96.60;;;;;;4956181;28;20050;-79
2023/08/27 02:24:35;;;;;;;9.65;4.93;;;24.60;96.50;;;;;;4959590;28;20039;-80
2023/08/27 02:27:03;;;;;;;8.10;4.18;;;24.50;96.30;;;;;;4954737;28;20477;-80
2023/08/27 02:29:30;;;;;;;10.23;5.15;;;24.50;96.20;;;;;;4952089;28;20466;-80
2023/08/27 02:31:57;;;;;;;10.75;4.82;;;24.50;96.80;;;;;;4954313;28;20130;-80
2023/08/27 02:34:24;;;;;;;6.53;4.43;;;24.50;97.30;;;;;;4954158;28;20137;-80
2023/08/27 02:36:52;;;;;;;7.00;5.22;;;24.40;97.50;;;;;;4961959;28;20062;-80
2023/08/27 02:39:19;;;;;;;8.65;4.75;;;24.40;97.30;;;;;;4965967;28;20098;-79
2023/08/27 02:41:46;;;;;;;8.60;4.88;;;24.40;96.90;;;;;;4967224;28;20063;-80
2023/08/27 02:44:13;;;;;;;10.57;5.07;;;24.40;97.50;;;;;;4959844;28;20050;-80
2023/08/27 02:46:41;;;;;;;11.50;5.28;;;24.30;97.10;;;;;;4964621;28;22743;-80
2023/08/27 02:49:08;;;;;;;7.00;4.00;;;24.30;96.80;;;;;;4975899;28;20050;-80
2023/08/27 02:51:35;;;;;;;7.78;5.50;;;24.30;97.20;;;;;;4960051;28;20051;-80
2023/08/27 02:54:02;;;;;;;9.52;4.75;;;24.30;96.90;;;;;;4962690;28;20058;-80
2023/08/27 02:56:29;;;;;;;10.98;5.97;;;24.20;96.70;;;;;;4948092;28;20075;-80
2023/08/27 02:58:56;;;;;;;10.98;5.60;;;24.20;96.50;;;;;;4970870;28;20130;-80
2023/08/27 03:01:25;;;;;;;5.78;4.00;;;24.20;97.00;;;;;;4966173;28;20411;-80
2023/08/27 03:03:52;;;;;;;11.73;5.15;;;24.20;96.50;;;;;;4958896;28;20043;-80
2023/08/27 03:06:19;;;;;;;6.97;4.32;;;24.20;96.70;;;;;;4948870;28;20498;-80
2023/08/27 03:08:47;;;;;;;8.20;4.22;;;24.10;96.40;;;;;;4949017;28;20527;-80
2023/08/27 03:11:14;;;;;;;9.70;4.93;;;24.10;96.30;;;;;;4950560;28;20068;-80
2023/08/27 03:13:41;;;;;;;8.05;4.82;;;24.10;96.70;;;;;;4957914;28;20825;-80
2023/08/27 03:16:08;;;;;;;8.15;4.85;;;24.00;96.90;;;;;;4956653;28;20051;-80
2023/08/27 03:18:36;;;;;;;9.63;4.93;;;24.00;96.80;;;;;;4961797;28;20047;-80
2023/08/27 03:21:03;;;;;;;9.38;5.20;;;24.00;97.20;;;;;;4956242;28;20140;-79
2023/08/27 03:23:34;;;;;;;6.53;4.15;;;23.90;97.30;;;;;;4962222;28;20062;-79
2023/08/27 03:26:01;;;;;;;18.80;6.40;;;23.90;97.20;;;;;;4961748;28;20055;-79
2023/08/27 03:28:28;;;;;;;8.88;4.88;;;23.90;97.40;;;;;;4958409;28;20429;-80
2023/08/27 03:30:56;;;;;;;9.27;5.32;;;23.80;97.50;;;;;;4953286;28;20050;-80
2023/08/27 03:33:23;;;;;;;8.82;5.80;;;23.80;97.10;;;;;;4951697;28;20200;-80
2023/08/27 03:35:55;;;;;;;8.35;5.20;;;23.90;97.70;;;;;;4962278;28;20039;-79
2023/08/27 03:38:23;;;;;;;11.35;5.70;;;23.80;97.90;;;;;;4952657;28;20051;-79
2023/08/27 03:40:52;;;;;;;10.38;5.95;;;23.80;98.10;;;;;;4974120;28;20054;-79
2023/08/27 03:43:20;;;;;;;10.52;5.28;;;23.80;98.10;;;;;;4973008;28;20055;-79
2023/08/27 03:45:47;;;;;;;9.57;5.68;;;23.80;98.30;;;;;;4961171;28;20142;-80
2023/08/27 03:48:15;;;;;;;10.07;5.28;;;23.70;98.40;;;;;;4957960;28;20054;-80
2023/08/27 03:50:42;;;;;;;8.25;4.90;;;23.70;98.90;;;;;;4948532;28;20178;-80
2023/08/27 03:53:10;;;;;;;12.50;5.30;;;23.70;99.10;;;;;;4949967;28;20059;-80
2023/08/27 03:55:41;;;;;;;10.02;5.43;;;23.70;99.30;;;;;;4979267;28;20075;-80
2023/08/27 03:58:09;;;;;;;9.40;5.47;;;23.70;99.20;;;;;;4961694;28;20054;-80
2023/08/27 04:00:37;;;;;;;10.13;5.20;;;23.70;99.30;;;;;;4958081;28;20042;-80
2023/08/27 04:03:06;;;;;;;8.23;4.90;;;23.60;99.70;;;;;;4964649;28;20113;-80
2023/08/27 04:05:33;;;;;;;7.72;5.18;;;23.60;99.70;;;;;;4960396;28;20054;-80
2023/08/27 04:08:01;;;;;;;9.93;5.40;;;23.60;99.90;;;;;;4951334;28;20039;-80
2023/08/27 04:10:28;;;;;;;11.77;6.05;;;23.60;99.90;;;;;;4960125;28;20413;-80
2023/08/27 04:12:56;;;;;;;11.02;5.10;;;23.60;99.80;;;;;;4950101;28;20145;-80
2023/08/27 04:15:25;;;;;;;11.00;4.97;;;23.60;99.90;;;;;;4956684;28;20051;-80
2023/08/27 04:17:53;;;;;;;11.13;5.32;;;23.60;99.90;;;;;;4967069;28;20062;-80
2023/08/27 04:20:21;;;;;;;12.45;4.82;;;23.60;99.90;;;;;;4946437;28;20137;-80
2023/08/27 04:22:48;;;;;;;9.10;4.97;;;23.60;99.90;;;;;;4960217;28;21357;-80
2023/08/27 04:25:15;;;;;;;7.10;5.05;;;23.60;99.90;;;;;;4946446;28;20049;-80
2023/08/27 04:27:43;;;;;;;9.27;6.13;;;23.60;99.90;;;;;;4957938;28;20565;-80
2023/08/27 04:30:12;;;;;;;10.65;5.95;;;23.60;99.90;;;;;;4972775;28;20948;-80
2023/08/27 04:32:39;;;;;;;11.38;5.85;;;23.50;99.90;;;;;;4951712;28;20522;-80
2023/08/27 04:35:07;;;;;;;8.82;5.68;;;23.60;99.90;;;;;;4957403;28;20098;-80
2023/08/27 04:37:35;;;;;;;11.02;5.97;;;23.60;99.90;;;;;;4973412;28;20524;-80
2023/08/27 04:40:03;;;;;;;9.48;5.57;;;23.60;99.90;;;;;;4962806;28;20039;-80
2023/08/27 04:42:30;;;;;;;12.55;6.82;;;23.60;99.90;;;;;;4953041;28;20601;-80
2023/08/27 04:44:58;;;;;;;12.23;5.43;;;23.60;99.90;;;;;;4943916;28;20051;-80
2023/08/27 04:47:25;;;;;;;9.13;5.57;;;23.60;99.90;;;;;;4938545;28;20830;-80
2023/08/27 04:49:53;;;;;;;10.43;6.18;;;23.60;99.90;;;;;;4954672;28;20425;-80
2023/08/27 04:52:22;;;;;;;10.63;6.00;;;23.70;99.90;;;;;;4954443;28;20151;-80
2023/08/27 04:54:58;;;;;;;11.07;5.85;;;23.70;99.90;;;;;;4957921;28;20101;-80
2023/08/27 04:57:25;;;;;;;11.10;5.25;;;23.70;99.90;;;;;;4968107;28;22780;-80
2023/08/27 04:59:54;;;;;;;8.73;5.53;;;23.70;99.90;;;;;;4965297;28;20046;-80
2023/08/27 05:02:21;;;;;;;9.90;5.38;;;23.80;99.90;;;;;;4945294;28;20042;-80
2023/08/27 05:04:49;;;;;;;10.50;5.72;;;23.80;99.90;;;;;;4967122;28;20030;-80
2023/08/27 05:07:17;;;;;;;10.10;5.68;;;23.80;99.90;;;;;;4962134;28;20187;-80
2023/08/27 05:09:45;;;;;;;10.38;5.43;;;23.90;99.90;;;;;;4960606;28;20132;-80
2023/08/27 05:12:13;;;;;;;10.27;5.85;;;23.90;99.90;;;;;;4955270;28;20513;-80
2023/08/27 05:14:41;;;;;;;9.85;5.28;;;23.90;99.90;;;;;;4944658;28;20417;-80
2023/08/27 05:17:08;;;;;;;7.85;5.07;;;23.90;99.90;;;;;;4959496;28;20042;-80
2023/08/27 05:19:35;;;;;;;10.93;5.25;;;24.00;99.90;;;;;;4956237;28;20051;-80
2023/08/27 05:22:04;;;;;;;11.88;5.63;;;24.00;99.90;;;;;;4951173;28;20047;-80
2023/08/27 05:24:31;;;;;;;7.18;5.13;;;24.00;99.90;;;;;;4954998;28;20130;-80
2023/08/27 05:26:58;;;;;;;9.82;5.00;;;24.10;99.90;;;;;;4960234;28;23027;-80
2023/08/27 05:29:25;;;;;;;7.88;4.97;;;24.10;99.90;;;;;;4958021;28;20106;-81
2023/08/27 05:31:53;;;;;;;9.10;4.63;;;24.10;99.90;;;;;;4954963;28;20051;-81
2023/08/27 05:34:20;;;;;;;9.02;5.35;;;24.20;99.90;;;;;;4956923;28;20090;-81
2023/08/27 05:36:47;;;;;;;7.97;4.70;;;24.10;99.90;;;;;;4956554;28;20501;-81
2023/08/27 05:39:15;;;;;;;10.35;5.07;;;24.30;99.90;;;;;;4955805;28;20039;-81
2023/08/27 05:41:42;;;;;;;7.25;4.35;;;24.30;99.90;;;;;;4962215;28;20046;-81
2023/08/27 05:44:10;;;;;;;11.65;5.15;;;24.20;99.90;;;;;;4956461;28;20043;-81
2023/08/27 05:46:37;;;;;;;6.88;4.70;;;24.30;99.90;;;;;;4941122;28;20047;-81
2023/08/27 05:49:04;;;;;;;7.28;5.22;;;24.30;99.90;;;;;;4958948;28;20078;-81
2023/08/27 05:51:33;;;;;;;9.88;5.15;;;24.30;99.90;;;;;;4953716;28;20050;-81
2023/08/27 05:54:00;;;;;;;10.30;4.85;;;24.40;99.90;;;;;;4974581;28;20071;-81
2023/08/27 05:56:27;;;;;;;8.13;4.38;;;24.50;99.90;;;;;;4957374;28;20055;-82
2023/08/27 05:58:54;;;;;;;8.82;4.35;;;24.40;99.90;;;;;;4964234;28;20049;-81
2023/08/27 06:01:22;;;;;;;7.97;3.97;;;24.60;99.90;;;;;;4943648;28;20445;-82
2023/08/27 06:03:50;;;;;;;15.35;5.72;;;24.70;99.90;;;;;;4945710;28;20043;-82
2023/08/27 06:06:17;;;;;;;6.53;4.40;;;24.70;99.90;;;;;;4947561;28;20516;-83
2023/08/27 06:08:44;;;;;;;7.43;4.85;;;24.80;99.90;;;;;;4958767;28;20055;-83
2023/08/27 06:11:11;;;;;;;14.70;5.20;;;24.90;99.90;;;;;;4944657;28;20043;-82
2023/08/27 06:13:38;;;;;;;9.85;5.30;;;25.00;99.90;;;;;;4960120;28;20054;-82
2023/08/27 06:16:05;;;;;;;6.97;4.97;;;25.10;99.90;;;;;;4952193;28;20502;-83
2023/08/27 06:18:33;;;;;;;8.30;5.53;;;25.20;99.90;;;;;;4976096;28;20050;-82
2023/08/27 06:21:00;;;;;;;6.95;5.22;;;25.40;99.90;;;;;;4959427;28;20058;-83
2023/08/27 06:23:27;;;;;;;11.57;5.60;;;25.40;99.90;;;;;;4957707;28;20050;-82
2023/08/27 06:26:04;;;;;;;9.82;5.25;;;25.40;99.90;;;;;;4960369;28;20067;-83
2023/08/27 06:28:31;;;;;;;8.10;5.80;;;25.60;99.90;;;;;;4959970;28;20047;-82
2023/08/27 06:31:02;;;;;;;8.30;4.90;;;25.70;99.90;;;;;;4966470;28;20048;-83
2023/08/27 06:33:29;;;;;;;8.50;5.45;;;25.70;99.90;;;;;;4974298;28;20039;-82
2023/08/27 06:35:56;;;;;;;12.43;6.00;;;25.80;99.90;;;;;;4977101;28;20042;-81
2023/08/27 06:38:23;;;;;;;8.95;5.65;;;25.70;99.90;;;;;;4949858;28;20047;-82
2023/08/27 06:40:51;;;;;;;8.73;6.03;;;25.80;99.90;;;;;;4960619;28;20137;-82
2023/08/27 06:43:18;;;;;;;10.70;6.15;;;25.90;99.90;;;;;;4960283;28;22796;-84
2023/08/27 06:45:46;;;;;;;7.20;5.47;;;26.10;99.90;;;;;;4963386;28;20051;-82
2023/08/27 06:48:13;;;;;;;14.35;6.13;;;26.20;99.90;;;;;;4947572;28;20054;-82
2023/08/27 06:50:40;;;;;;;9.60;6.53;;;26.40;99.60;;;;;;4964556;28;20082;-82
2023/08/27 06:53:09;;;;;;;8.07;5.63;;;26.40;98.60;;;;;;4956654;28;20135;-80
2023/08/27 06:55:36;;;;;;;9.52;6.63;;;26.40;99.00;;;;;;4974114;28;20052;-82
2023/08/27 06:58:03;;;;;;;8.77;5.60;;;26.50;98.90;;;;;;4948911;28;20057;-81
2023/08/27 07:00:31;;;;;;;9.68;6.03;;;26.50;98.40;;;;;;4946958;28;20051;-82
2023/08/27 07:02:59;;;;;;;9.52;6.43;;;26.50;98.80;;;;;;4957968;28;20046;-82
2023/08/27 07:05:28;;;;;;;9.30;6.28;;;26.50;98.90;;;;;;4973983;28;20072;-82
2023/08/27 07:07:56;;;;;;;7.70;5.57;;;26.60;98.00;;;;;;4954270;28;20184;-82
2023/08/27 07:10:23;;;;;;;8.40;6.32;;;26.70;97.60;;;;;;4962114;28;20083;-80
2023/08/27 07:12:50;;;;;;;8.05;6.13;;;26.90;98.20;;;;;;4953323;28;20065;-82
2023/08/27 07:15:18;;;;;;;9.40;6.40;;;27.00;98.50;;;;;;4946883;28;20055;-81
2023/08/27 07:17:45;;;;;;;10.82;6.68;;;27.10;98.90;;;;;;4963255;28;20047;-82
2023/08/27 07:20:13;;;;;;;10.68;7.85;;;27.20;97.70;;;;;;4959430;28;20413;-82
2023/08/27 07:22:43;;;;;;;9.85;6.93;;;27.30;98.10;;;;;;4959210;28;20134;-81
2023/08/27 07:25:10;;;;;;;11.55;7.20;;;27.30;97.60;;;;;;4959428;28;20050;-82
2023/08/27 07:27:38;;;;;;;10.68;6.97;;;27.40;97.00;;;;;;4963027;28;20418;-82
2023/08/27 07:30:06;;;;;;;10.43;7.10;;;27.40;97.00;;;;;;4938953;28;20051;-81
2023/08/27 07:32:33;;;;;;;10.38;7.03;;;27.60;96.50;;;;;;4958004;28;20150;-83
2023/08/27 07:35:00;;;;;;;9.25;7.45;;;27.60;96.00;;;;;;4966958;28;20063;-81
2023/08/27 07:37:32;;;;;;;9.65;6.63;;;27.80;96.70;;;;;;4946678;28;20042;-82
2023/08/27 07:40:03;;;;;;;9.88;6.90;;;27.80;96.20;;;;;;4965610;28;20050;-81
2023/08/27 07:42:31;;;;;;;10.13;6.70;;;28.00;96.50;;;;;;4955334;28;20047;-82
2023/08/27 07:44:59;;;;;;;9.48;6.93;;;28.10;95.80;;;;;;4957903;28;20035;-82
2023/08/27 07:47:26;;;;;;;11.13;6.95;;;28.10;95.00;;;;;;4952711;28;20055;-82
2023/08/27 07:49:53;;;;;;;10.38;7.47;;;28.30;95.60;;;;;;4951241;28;20043;-81
2023/08/27 07:52:20;;;;;;;13.68;8.10;;;28.30;94.80;;;;;;4952577;28;20656;-81
2023/08/27 07:54:48;;;;;;;9.07;7.10;;;28.40;95.00;;;;;;4965928;28;20118;-82
2023/08/27 07:57:16;;;;;;;10.75;7.50;;;28.40;94.70;;;;;;4961722;28;20043;-83
2023/08/27 07:59:43;;;;;;;11.57;7.00;;;28.50;94.90;;;;;;4959723;28;20066;-82
2023/08/27 08:02:13;;;;;;;10.63;7.68;;;28.70;94.10;;;;;;4944343;28;20141;-83
2023/08/27 08:04:40;;;;;;;13.30;8.10;;;28.60;93.20;;;;;;4958926;28;20049;-82
2023/08/27 08:07:08;;;;;;;12.10;8.50;;;28.60;94.10;;;;;;4955621;28;20078;-81
2023/08/27 08:09:35;;;;;;;11.65;8.02;;;28.70;94.20;;;;;;4947975;28;20063;-81
2023/08/27 08:12:02;;;;;;;9.13;7.32;;;28.80;94.70;;;;;;4962623;28;20043;-82
2023/08/27 08:14:29;;;;;;;11.45;7.65;;;28.90;94.50;;;;;;4957915;28;20121;-81
2023/08/27 08:16:57;;;;;;;14.45;8.15;;;29.10;94.90;;;;;;4948237;28;20134;-82
2023/08/27 08:19:24;;;;;;;10.13;7.95;;;29.10;94.10;;;;;;4950271;28;20058;-82
2023/08/27 08:21:51;;;;;;;11.73;7.90;;;29.20;93.70;;;;;;4959552;28;20039;-83
2023/08/27 08:24:18;;;;;;;10.73;7.80;;;29.30;93.60;;;;;;4967159;28;20039;-82
2023/08/27 08:26:45;;;;;;;11.50;8.13;;;29.40;93.10;;;;;;4955544;28;20413;-82
2023/08/27 08:29:12;;;;;;;10.30;8.40;;;29.30;92.10;;;;;;4965480;28;20098;-80
2023/08/27 08:31:39;;;;;;;10.88;8.27;;;29.40;92.80;;;;;;4953140;28;20647;-80
2023/08/27 08:34:07;;;;;;;9.63;7.55;;;29.40;92.60;;;;;;4957162;28;20145;-82
2023/08/27 08:36:34;;;;;;;11.02;7.57;;;29.50;92.40;;;;;;4973373;28;20035;-81
2023/08/27 08:39:01;;;;;;;11.02;7.15;;;29.50;92.50;;;;;;4974192;28;22830;-82
2023/08/27 08:41:28;;;;;;;7.80;6.65;;;29.60;92.80;;;;;;4960181;28;22809;-80
2023/08/27 08:44:06;;;;;;;13.25;7.97;;;29.60;93.20;;;;;;4956693;28;20055;-81
2023/08/27 08:46:35;;;;;;;9.23;7.45;;;29.60;93.00;;;;;;4965426;28;20612;-81
2023/08/27 08:49:04;;;;;;;10.05;7.95;;;29.70;93.30;;;;;;4953593;28;20055;-82
2023/08/27 08:51:33;;;;;;;9.65;6.72;;;29.70;93.00;;;;;;4969713;28;20642;-81
2023/08/27 08:54:04;;;;;;;14.77;8.93;;;29.80;92.10;;;;;;4951011;28;20050;-82
2023/08/27 08:56:37;;;;;;;12.85;8.88;;;29.80;92.10;;;;;;4959430;28;20055;-82
2023/08/27 08:59:06;;;;;;;13.13;8.35;;;29.80;92.50;;;;;;4954287;28;20543;-82
2023/08/27 09:01:35;;;;;;;11.13;8.52;;;29.80;92.70;;;;;;4956962;28;20051;-82
2023/08/27 09:04:06;;;;;;;11.18;8.43;;;29.90;92.40;;;;;;4982976;28;20047;-83
2023/08/27 09:06:34;;;;;;;13.35;8.50;;;29.90;93.40;;;;;;4957102;28;20093;-84
2023/08/27 09:09:01;;;;;;;13.57;8.52;;;29.80;92.80;;;;;;5003227;28;20061;-83
2023/08/27 09:11:31;;;;;;;13.52;8.43;;;29.90;93.20;;;;;;4975493;28;20136;-83
2023/08/27 09:14:03;;;;;;;11.57;8.68;;;30.00;93.90;;;;;;4982735;28;20196;-83
2023/08/27 09:16:30;;;;;;;12.48;8.70;;;30.10;93.60;;;;;;4969455;28;20050;-84
2023/08/27 09:18:57;;;;;;;13.35;10.45;;;30.20;93.60;;;;;;4983705;28;21281;-83
2023/08/27 09:21:24;;;;;;;14.38;10.50;;;30.20;93.10;;;;;;4971178;28;20148;-84
2023/08/27 09:23:55;;;;;;;13.10;9.50;;;30.20;92.50;;;;;;4970426;28;20057;-83
2023/08/27 09:26:23;;;;;;;11.52;9.00;;;30.30;92.00;;;;;;4986936;28;20052;-83
2023/08/27 09:28:51;;;;;;;12.98;9.10;;;30.30;91.80;;;;;;4974877;28;20050;-82
2023/08/27 09:31:41;;;;;;;12.50;9.20;;;30.30;91.50;;;;;;4986268;28;20070;-82
2023/08/27 09:34:09;;;;;;;13.57;9.02;;;30.40;92.10;;;;;;4981192;28;20069;-84
2023/08/27 09:36:38;;;;;;;11.73;9.13;;;30.30;91.20;;;;;;5001764;28;22805;-83
2023/08/27 09:39:09;;;;;;;9.27;7.97;;;30.40;91.50;;;;;;4980702;28;20089;-82
2023/08/27 09:41:39;;;;;;;11.73;8.55;;;30.40;89.60;;;;;;4959607;28;20042;-81
2023/08/27 09:44:07;;;;;;;10.40;8.18;;;30.50;89.70;;;;;;4960301;28;20074;-82
2023/08/27 09:46:36;;;;;;;10.98;8.07;;;30.50;88.00;;;;;;4949228;28;20442;-82
2023/08/27 09:49:06;;;;;;;11.95;7.55;;;30.50;88.10;;;;;;4962797;28;20066;-81
2023/08/27 09:51:38;;;;;;;12.98;8.27;;;30.60;88.90;;;;;;4948863;28;21059;-82
2023/08/27 09:54:17;;;;;;;11.27;8.30;;;30.50;89.30;;;;;;4959041;28;20051;-81
2023/08/27 09:56:46;;;;;;;10.10;8.00;;;30.60;88.70;;;;;;4965064;28;20074;-81
2023/08/27 09:59:18;;;;;;;12.02;8.07;;;30.60;89.30;;;;;;4948891;28;20051;-81
2023/08/27 10:01:46;;;;;;;;;;;30.70;90.20;;;;;;4951602;28;20070;-81
2023/08/27 10:04:14;;;;;;;11.98;8.35;;;30.80;91.00;;;;;;4957442;28;20041;-83
2023/08/27 10:06:42;;;;;;;10.82;7.60;;;30.80;90.00;;;;;;4948136;28;20117;-83
2023/08/27 10:09:09;;;;;;;11.65;7.78;;;30.80;89.20;;;;;;4960193;28;20478;-83
2023/08/27 10:11:37;;;;;;;9.45;8.25;;;30.80;89.80;;;;;;4958775;28;20062;-82
2023/08/27 10:14:04;;;;;;;8.70;7.63;;;30.80;89.40;;;;;;4964485;28;20087;-81
2023/08/27 10:16:36;;;;;;;11.70;7.90;;;30.90;90.70;;;;;;4969144;28;20063;-82
2023/08/27 10:19:06;;;;;;;10.05;7.43;;;30.90;84.90;;;;;;4956577;28;22886;-83
2023/08/27 10:21:35;;;;;;;10.15;7.05;;;31.00;82.40;;;;;;4954509;28;20125;-82
2023/08/27 10:24:05;;;;;;;11.18;7.07;;;31.00;83.20;;;;;;4971657;28;20138;-83
2023/08/27 10:26:33;;;;;;;15.70;8.52;;;31.10;82.00;;;;;;4954073;28;20059;-81
2023/08/27 10:29:03;;;;;;;11.23;7.40;;;31.20;82.10;;;;;;4958906;28;20485;-84
2023/08/27 10:31:30;;;;;;;10.50;7.35;;;31.10;82.40;;;;;;4944953;28;22902;-82
2023/08/27 10:33:58;;;;;;;8.48;7.55;;;31.10;82.20;;;;;;4954077;28;20048;-82
2023/08/27 10:36:33;;;;;;;8.98;7.40;;;31.20;82.30;;;;;;4957703;28;20051;-82
2023/08/27 10:39:03;;;;;;;8.98;7.72;;;31.20;81.60;;;;;;4954631;28;20122;-83
2023/08/27 10:41:34;;;;;;;9.98;7.43;;;31.30;80.30;;;;;;4971543;28;20111;-80
2023/08/27 10:44:02;;;;;;;9.57;6.82;;;31.40;80.10;;;;;;4960010;28;20059;-83
2023/08/27 10:46:31;;;;;;;13.18;8.02;;;31.30;77.30;;;;;;4967591;28;20141;-83
2023/08/27 10:48:58;;;;;;;10.52;7.47;;;31.30;80.20;;;;;;4956772;28;20086;-80
2023/08/27 10:51:31;;;;;;;13.05;7.15;;;31.30;78.10;;;;;;4955839;28;20078;-82
2023/08/27 10:54:00;;;;;;;8.90;6.55;;;31.40;79.20;;;;;;4959487;28;20067;-81
2023/08/27 10:56:36;;;;;;;8.90;7.13;;;31.40;77.40;;;;;;4959892;28;20051;-84
2023/08/27 10:59:03;;;;;;;9.90;7.43;;;31.40;77.40;;;;;;4953864;28;20236;-82
2023/08/27 11:01:38;;;;;;;9.70;6.88;;;31.40;77.40;;;;;;4958775;28;20924;-83
2023/08/27 11:04:06;;;;;;;8.57;7.05;;;31.50;78.20;;;;;;4966500;28;20059;-80
2023/08/27 11:06:48;;;;;;;9.13;7.22;;;31.50;78.90;;;;;;4946943;28;20098;-82
2023/08/27 11:09:24;;;;;;;9.18;7.30;;;31.60;78.00;;;;;;4962431;28;20051;-82
2023/08/27 11:11:55;;;;;;;10.95;7.10;;;31.60;78.90;;;;;;4963294;28;20450;-82
2023/08/27 11:14:23;;;;;;;;;;;31.80;76.80;;;;;;4943983;28;20050;-82
2023/08/27 11:17:00;;;;;;;8.82;7.70;;;31.80;77.60;;;;;;4948086;28;20354;-82
2023/08/27 11:19:36;;;;;;;10.55;7.95;;;31.80;76.00;;;;;;4964472;28;22552;-84
2023/08/27 11:22:07;;;;;;;8.75;7.45;;;31.90;76.70;;;;;;4963444;28;22873;-82
2023/08/27 11:24:35;;;;;;;7.95;7.15;;;31.80;77.00;;;;;;4948240;28;20058;-83
2023/08/27 11:27:03;;;;;;;10.57;6.72;;;32.00;76.30;;;;;;4953723;28;20134;-83
2023/08/27 11:29:33;;;;;;;10.68;7.75;;;32.00;78.00;;;;;;4961676;28;20047;-84
2023/08/27 11:32:02;;;;;;;9.52;7.22;;;32.10;77.30;;;;;;4958674;28;20047;-83
2023/08/27 11:34:43;;;;;;;10.57;8.00;;;32.10;74.70;;;;;;4948948;28;20047;-81
2023/08/27 11:37:11;;;;;;;10.82;7.85;;;32.10;73.40;;;;;;4960506;28;20502;-83
2023/08/27 11:39:40;;;;;;;11.13;7.72;;;32.20;72.00;;;;;;4951338;28;20051;-82
2023/08/27 11:42:13;;;;;;;9.05;7.32;;;32.20;71.10;;;;;;4962586;28;20107;-83
2023/08/27 11:44:52;;;;;;;10.00;7.63;;;32.20;72.10;;;;;;4958082;28;20051;-83
2023/08/27 11:47:21;;;;;;;9.77;7.50;;;32.30;70.30;;;;;;4955779;28;20521;-85
2023/08/27 11:49:50;;;;;;;12.65;7.78;;;32.30;71.80;;;;;;4954824;28;20043;-81
2023/08/27 11:52:18;;;;;;;10.95;7.65;;;32.30;71.40;;;;;;4962535;28;20590;-81
2023/08/27 11:54:47;;;;;;;11.68;8.93;;;32.30;68.70;;;;;;4965691;28;20133;-83
2023/08/27 11:57:18;;;;;;;10.05;7.60;;;32.30;68.30;;;;;;4962656;28;20043;-82
2023/08/27 11:59:48;;;;;;;8.40;7.50;;;32.40;68.80;;;;;;4969379;28;20039;-79
2023/08/27 12:02:16;;;;;;;10.35;7.68;;;32.50;68.80;;;;;;4964847;28;20047;-80
2023/08/27 12:04:44;;;;;;;9.15;7.63;;;32.50;70.50;;;;;;4973775;28;20178;-81
2023/08/27 12:07:11;;;;;;;10.18;7.15;;;32.50;68.90;;;;;;4950773;28;20051;-82
2023/08/27 12:09:43;;;;;;;10.05;7.65;;;32.50;68.30;;;;;;4973061;28;20475;-83
2023/08/27 12:12:16;;;;;;;8.65;7.55;;;32.60;66.00;;;;;;4958876;28;20141;-81
2023/08/27 12:14:45;;;;;;;10.75;7.82;;;32.60;67.30;;;;;;4965432;28;20078;-82
2023/08/27 12:17:15;;;;;;;;;;;32.60;67.00;;;;;;4953584;28;20055;-82
2023/08/27 12:19:43;;;;;;;9.88;8.00;;;32.60;67.00;;;;;;4976972;28;19981;-81
2023/08/27 12:22:17;;;;;;;12.48;7.97;;;32.60;66.50;;;;;;4966512;28;20051;-81
2023/08/27 12:24:45;;;;;;;10.07;8.00;;;32.60;66.20;;;;;;4958575;28;20053;-80
2023/08/27 12:27:19;;;;;;;8.93;7.68;;;32.60;66.60;;;;;;4946612;28;20051;-81
2023/08/27 12:29:52;;;;;;;9.68;7.95;;;32.60;66.30;;;;;;4972343;28;20035;-83
2023/08/27 12:32:22;;;;;;;9.95;8.00;;;32.70;65.50;;;;;;4957081;28;20123;-80
2023/08/27 12:34:51;;;;;;;11.98;8.80;;;32.80;66.90;;;;;;4950866;28;20071;-81
2023/08/27 12:37:22;;;;;;;10.80;7.95;;;32.80;66.00;;;;;;4963465;28;20413;-82
2023/08/27 12:39:53;;;;;;;9.95;8.32;;;32.80;65.90;;;;;;4949419;28;20053;-82
2023/08/27 12:42:22;;;;;;;9.00;7.93;;;32.80;63.90;;;;;;4953557;28;20418;-82
2023/08/27 12:44:49;;;;;;;9.55;7.50;;;32.80;63.80;;;;;;4968351;28;20127;-81
2023/08/27 12:47:17;;;;;;;10.20;8.40;;;32.80;64.70;;;;;;4962448;28;20059;-82
2023/08/27 12:49:45;;;;;;;10.65;8.73;;;32.80;64.60;;;;;;4968923;28;20051;-80